sensor_id;sensor_type;location;lat;lon;timestamp;temperature;humidity
2571;DHT22;1295;51.130;6.732;2022-11-18T00:00:46;11.20;99.90
2571;DHT22;1295;51.130;6.732;2022-11-18T00:03:16;11.20;99.90
2571;DHT22;1295;51.130;6.732;2022-11-18T00:05:42;11.20;99.90
2571;DHT22;1295;51.130;6.732;2022-11-18T00:08:08;11.30;99.90
2571;DHT22;1295;51.130;6.732;2022-11-18T00:10:37;11.20;99.90
2571;DHT22;1295;51.130;6.732;2022-11-18T00:13:02;11.20;99.90
2571;DHT22;1295;51.130;6.732;2022-11-18T00:15:34;11.20;99.90
2571;DHT22;1295;51.130;6.732;2022-11-18T00:18:00;11.30;99.90
2571;DHT22;1295;51.130;6.732;2022-11-18T00:20:25;11.30;99.90
2571;DHT22;1295;51.130;6.732;2022-11-18T00:22:51;11.30;99.90
2571;DHT22;1295;51.130;6.732;2022-11-18T00:25:17;11.20;99.90
2571;DHT22;1295;51.130;6.732;2022-11-18T00:27:43;11.20;99.90
2571;DHT22;1295;51.130;6.732;2022-11-18T00:30:10;11.20;99.90
2571;DHT22;1295;51.130;6.732;2022-11-18T00:32:35;11.20;99.90
2571;DHT22;1295;51.130;6.732;2022-11-18T00:35:01;11.30;99.90
2571;DHT22;1295;51.130;6.732;2022-11-18T00:37:27;11.30;99.90
2571;DHT22;1295;51.130;6.732;2022-11-18T00:39:52;11.30;99.90
2571;DHT22;1295;51.130;6.732;2022-11-18T00:42:18;11.30;99.90
2571;DHT22;1295;51.130;6.732;2022-11-18T00:44:50;11.20;99.90
2571;DHT22;1295;51.130;6.732;2022-11-18T00:47:15;11.20;99.90
2571;DHT22;1295;51.130;6.732;2022-11-18T00:49:41;11.30;99.90
2571;DHT22;1295;51.130;6.732;2022-11-18T00:52:07;11.30;99.90
2571;DHT22;1295;51.130;6.732;2022-11-18T00:54:32;11.30;99.90
2571;DHT22;1295;51.130;6.732;2022-11-18T00:56:58;11.30;99.90
2571;DHT22;1295;51.130;6.732;2022-11-18T00:59:24;11.30;99.90
2571;DHT22;1295;51.130;6.732;2022-11-18T01:01:49;11.20;99.90
2571;DHT22;1295;51.130;6.732;2022-11-18T01:04:15;11.20;99.90
2571;DHT22;1295;51.130;6.732;2022-11-18T01:06:40;11.30;99.90
2571;DHT22;1295;51.130;6.732;2022-11-18T01:09:07;11.30;99.90
2571;DHT22;1295;51.130;6.732;2022-11-18T01:11:32;11.30;99.90
2571;DHT22;1295;51.130;6.732;2022-11-18T01:14:04;11.30;99.90
2571;DHT22;1295;51.130;6.732;2022-11-18T01:16:30;11.30;99.90
2571;DHT22;1295;51.130;6.732;2022-11-18T01:18:56;11.30;99.90
2571;DHT22;1295;51.130;6.732;2022-11-18T01:21:21;11.30;99.90
2571;DHT22;1295;51.130;6.732;2022-11-18T01:23:48;11.30;99.90
2571;DHT22;1295;51.130;6.732;2022-11-18T01:26:15;11.30;99.90
2571;DHT22;1295;51.130;6.732;2022-11-18T01:28:40;11.30;99.90
2571;DHT22;1295;51.130;6.732;2022-11-18T01:31:11;11.30;99.90
2571;DHT22;1295;51.130;6.732;2022-11-18T01:33:35;11.30;99.90
2571;DHT22;1295;51.130;6.732;2022-11-18T01:36:01;11.30;99.90
2571;DHT22;1295;51.130;6.732;2022-11-18T01:38:26;11.30;99.90
2571;DHT22;1295;51.130;6.732;2022-11-18T01:40:53;11.30;99.90
2571;DHT22;1295;51.130;6.732;2022-11-18T01:43:19;11.30;99.90
2571;DHT22;1295;51.130;6.732;2022-11-18T01:45:45;11.30;99.90
2571;DHT22;1295;51.130;6.732;2022-11-18T01:48:14;11.30;99.90
2571;DHT22;1295;51.130;6.732;2022-11-18T01:50:40;11.30;99.90
2571;DHT22;1295;51.130;6.732;2022-11-18T01:53:06;11.20;99.90
2571;DHT22;1295;51.130;6.732;2022-11-18T01:55:31;11.20;99.90
2571;DHT22;1295;51.130;6.732;2022-11-18T01:57:57;11.30;99.90
2571;DHT22;1295;51.130;6.732;2022-11-18T02:00:21;11.20;99.90
2571;DHT22;1295;51.130;6.732;2022-11-18T02:02:47;11.20;99.90
2571;DHT22;1295;51.130;6.732;2022-11-18T02:05:12;11.30;99.90
2571;DHT22;1295;51.130;6.732;2022-11-18T02:07:40;11.20;99.90
2571;DHT22;1295;51.130;6.732;2022-11-18T02:10:06;11.20;99.90
2571;DHT22;1295;51.130;6.732;2022-11-18T02:12:32;11.20;99.90
2571;DHT22;1295;51.130;6.732;2022-11-18T02:14:58;11.20;99.90
2571;DHT22;1295;51.130;6.732;2022-11-18T02:17:42;11.10;99.90
2571;DHT22;1295;51.130;6.732;2022-11-18T02:20:26;11.00;99.90
2571;DHT22;1295;51.130;6.732;2022-11-18T02:23:00;11.20;99.90
2571;DHT22;1295;51.130;6.732;2022-11-18T02:30:57;11.20;99.90
2571;DHT22;1295;51.130;6.732;2022-11-18T02:33:23;11.20;99.90
2571;DHT22;1295;51.130;6.732;2022-11-18T02:35:51;11.20;99.90
2571;DHT22;1295;51.130;6.732;2022-11-18T02:38:17;11.00;99.90
2571;DHT22;1295;51.130;6.732;2022-11-18T02:40:43;11.10;99.90
2571;DHT22;1295;51.130;6.732;2022-11-18T02:43:17;11.10;99.90
2571;DHT22;1295;51.130;6.732;2022-11-18T02:45:45;11.20;99.90
2571;DHT22;1295;51.130;6.732;2022-11-18T02:48:09;11.20;99.90
2571;DHT22;1295;51.130;6.732;2022-11-18T02:50:35;11.20;99.90
2571;DHT22;1295;51.130;6.732;2022-11-18T02:53:02;11.20;99.90
2571;DHT22;1295;51.130;6.732;2022-11-18T02:55:27;11.20;99.90
2571;DHT22;1295;51.130;6.732;2022-11-18T02:57:52;11.20;99.90
2571;DHT22;1295;51.130;6.732;2022-11-18T03:00:18;11.10;99.90
2571;DHT22;1295;51.130;6.732;2022-11-18T03:02:44;11.20;99.90
2571;DHT22;1295;51.130;6.732;2022-11-18T03:05:24;11.20;99.90
2571;DHT22;1295;51.130;6.732;2022-11-18T03:07:47;11.20;99.90
2571;DHT22;1295;51.130;6.732;2022-11-18T03:10:12;11.20;99.90
2571;DHT22;1295;51.130;6.732;2022-11-18T03:12:45;11.20;99.90
2571;DHT22;1295;51.130;6.732;2022-11-18T03:18:17;11.20;99.90
2571;DHT22;1295;51.130;6.732;2022-11-18T03:20:28;11.20;99.90
2571;DHT22;1295;51.130;6.732;2022-11-18T03:22:54;11.20;99.90
2571;DHT22;1295;51.130;6.732;2022-11-18T03:25:20;11.20;99.90
2571;DHT22;1295;51.130;6.732;2022-11-18T03:27:51;11.20;99.90
2571;DHT22;1295;51.130;6.732;2022-11-18T03:30:14;11.20;99.90
2571;DHT22;1295;51.130;6.732;2022-11-18T03:32:39;11.20;99.90
2571;DHT22;1295;51.130;6.732;2022-11-18T03:35:06;11.20;99.90
2571;DHT22;1295;51.130;6.732;2022-11-18T03:37:31;11.20;99.90
2571;DHT22;1295;51.130;6.732;2022-11-18T03:39:58;11.20;99.90
2571;DHT22;1295;51.130;6.732;2022-11-18T03:42:24;11.20;99.90
2571;DHT22;1295;51.130;6.732;2022-11-18T03:44:49;11.10;99.90
2571;DHT22;1295;51.130;6.732;2022-11-18T03:47:16;11.20;99.90
2571;DHT22;1295;51.130;6.732;2022-11-18T03:49:41;11.20;99.90
2571;DHT22;1295;51.130;6.732;2022-11-18T03:52:09;11.20;99.90
2571;DHT22;1295;51.130;6.732;2022-11-18T03:54:32;11.10;99.90
2571;DHT22;1295;51.130;6.732;2022-11-18T03:57:05;11.20;99.90
2571;DHT22;1295;51.130;6.732;2022-11-18T03:59:33;11.20;99.90
2571;DHT22;1295;51.130;6.732;2022-11-18T04:02:00;11.10;99.90
2571;DHT22;1295;51.130;6.732;2022-11-18T04:04:24;11.10;99.90
2571;DHT22;1295;51.130;6.732;2022-11-18T04:06:52;11.20;99.90
2571;DHT22;1295;51.130;6.732;2022-11-18T04:09:17;11.20;99.90
2571;DHT22;1295;51.130;6.732;2022-11-18T04:11:43;11.10;99.90
2571;DHT22;1295;51.130;6.732;2022-11-18T04:14:13;11.10;99.90
2571;DHT22;1295;51.130;6.732;2022-11-18T04:16:40;11.10;99.90
2571;DHT22;1295;51.130;6.732;2022-11-18T04:19:06;11.20;99.90
2571;DHT22;1295;51.130;6.732;2022-11-18T04:21:32;11.10;99.90
2571;DHT22;1295;51.130;6.732;2022-11-18T04:23:58;11.10;99.90
2571;DHT22;1295;51.130;6.732;2022-11-18T04:26:24;11.10;99.90
2571;DHT22;1295;51.130;6.732;2022-11-18T04:28:50;11.10;99.90
2571;DHT22;1295;51.130;6.732;2022-11-18T04:31:16;11.10;99.90
2571;DHT22;1295;51.130;6.732;2022-11-18T04:33:41;11.10;99.90
2571;DHT22;1295;51.130;6.732;2022-11-18T04:36:08;11.10;99.90
2571;DHT22;1295;51.130;6.732;2022-11-18T04:38:34;11.10;99.90
2571;DHT22;1295;51.130;6.732;2022-11-18T04:40:59;11.10;99.90
2571;DHT22;1295;51.130;6.732;2022-11-18T04:43:25;11.20;99.90
2571;DHT22;1295;51.130;6.732;2022-11-18T04:45:50;11.10;99.90
2571;DHT22;1295;51.130;6.732;2022-11-18T04:48:16;11.10;99.90
2571;DHT22;1295;51.130;6.732;2022-11-18T04:50:42;11.10;99.90
2571;DHT22;1295;51.130;6.732;2022-11-18T04:53:08;11.10;99.90
2571;DHT22;1295;51.130;6.732;2022-11-18T04:55:34;11.10;99.90
2571;DHT22;1295;51.130;6.732;2022-11-18T04:58:00;11.10;99.90
2571;DHT22;1295;51.130;6.732;2022-11-18T05:00:26;11.10;99.90
2571;DHT22;1295;51.130;6.732;2022-11-18T05:02:52;11.10;99.90
2571;DHT22;1295;51.130;6.732;2022-11-18T05:05:17;11.10;99.90
2571;DHT22;1295;51.130;6.732;2022-11-18T05:07:43;11.10;99.90
2571;DHT22;1295;51.130;6.732;2022-11-18T05:10:09;11.10;99.90
2571;DHT22;1295;51.130;6.732;2022-11-18T05:12:34;11.10;99.90
2571;DHT22;1295;51.130;6.732;2022-11-18T05:15:06;11.00;99.90
2571;DHT22;1295;51.130;6.732;2022-11-18T05:17:33;11.10;99.90
2571;DHT22;1295;51.130;6.732;2022-11-18T05:19:59;11.10;99.90
2571;DHT22;1295;51.130;6.732;2022-11-18T05:22:24;11.10;99.90
2571;DHT22;1295;51.130;6.732;2022-11-18T05:24:50;11.10;99.90
2571;DHT22;1295;51.130;6.732;2022-11-18T05:27:16;11.10;99.90
2571;DHT22;1295;51.130;6.732;2022-11-18T05:29:41;11.00;99.90
2571;DHT22;1295;51.130;6.732;2022-11-18T05:32:07;11.00;99.90
2571;DHT22;1295;51.130;6.732;2022-11-18T05:34:33;11.00;99.90
2571;DHT22;1295;51.130;6.732;2022-11-18T05:36:58;11.00;99.90
2571;DHT22;1295;51.130;6.732;2022-11-18T05:39:24;11.00;99.90
2571;DHT22;1295;51.130;6.732;2022-11-18T05:41:50;11.00;99.90
2571;DHT22;1295;51.130;6.732;2022-11-18T05:44:22;11.00;99.90
2571;DHT22;1295;51.130;6.732;2022-11-18T05:46:48;11.00;99.90
2571;DHT22;1295;51.130;6.732;2022-11-18T05:49:13;11.00;99.90
2571;DHT22;1295;51.130;6.732;2022-11-18T05:51:39;11.00;99.90
2571;DHT22;1295;51.130;6.732;2022-11-18T05:54:06;11.00;99.90
2571;DHT22;1295;51.130;6.732;2022-11-18T05:56:35;11.00;99.90
2571;DHT22;1295;51.130;6.732;2022-11-18T05:58:59;11.00;99.90
2571;DHT22;1295;51.130;6.732;2022-11-18T06:01:25;11.00;99.90
2571;DHT22;1295;51.130;6.732;2022-11-18T06:03:50;11.00;99.90
2571;DHT22;1295;51.130;6.732;2022-11-18T06:06:16;11.00;99.90
2571;DHT22;1295;51.130;6.732;2022-11-18T06:08:45;11.00;99.90
2571;DHT22;1295;51.130;6.732;2022-11-18T06:11:10;11.00;99.90
2571;DHT22;1295;51.130;6.732;2022-11-18T06:13:37;11.00;99.90
2571;DHT22;1295;51.130;6.732;2022-11-18T06:16:01;11.00;99.90
2571;DHT22;1295;51.130;6.732;2022-11-18T06:18:27;11.00;99.90
2571;DHT22;1295;51.130;6.732;2022-11-18T06:20:54;11.00;99.90
2571;DHT22;1295;51.130;6.732;2022-11-18T06:23:21;10.90;99.90
2571;DHT22;1295;51.130;6.732;2022-11-18T06:25:47;11.00;99.90
2571;DHT22;1295;51.130;6.732;2022-11-18T06:28:13;11.00;99.90
2571;DHT22;1295;51.130;6.732;2022-11-18T06:30:38;10.90;99.90
2571;DHT22;1295;51.130;6.732;2022-11-18T06:33:04;11.00;99.90
2571;DHT22;1295;51.130;6.732;2022-11-18T06:35:30;10.90;99.90
2571;DHT22;1295;51.130;6.732;2022-11-18T06:37:55;11.00;99.90
2571;DHT22;1295;51.130;6.732;2022-11-18T06:40:22;10.90;99.90
2571;DHT22;1295;51.130;6.732;2022-11-18T06:42:47;10.90;99.90
2571;DHT22;1295;51.130;6.732;2022-11-18T06:45:19;10.90;99.90
2571;DHT22;1295;51.130;6.732;2022-11-18T06:47:45;10.90;99.90
2571;DHT22;1295;51.130;6.732;2022-11-18T06:50:11;10.90;99.90
2571;DHT22;1295;51.130;6.732;2022-11-18T06:52:37;10.90;99.90
2571;DHT22;1295;51.130;6.732;2022-11-18T06:55:03;10.90;99.90
2571;DHT22;1295;51.130;6.732;2022-11-18T06:57:29;10.90;99.90
2571;DHT22;1295;51.130;6.732;2022-11-18T06:59:55;10.90;99.90
2571;DHT22;1295;51.130;6.732;2022-11-18T07:02:20;10.90;99.90
2571;DHT22;1295;51.130;6.732;2022-11-18T07:04:46;10.90;99.90
2571;DHT22;1295;51.130;6.732;2022-11-18T07:07:12;10.90;99.90
2571;DHT22;1295;51.130;6.732;2022-11-18T07:09:37;10.90;99.90
2571;DHT22;1295;51.130;6.732;2022-11-18T07:12:04;10.90;99.90
2571;DHT22;1295;51.130;6.732;2022-11-18T07:14:37;10.90;99.90
2571;DHT22;1295;51.130;6.732;2022-11-18T07:17:02;10.90;99.90
2571;DHT22;1295;51.130;6.732;2022-11-18T07:19:28;10.90;99.90
2571;DHT22;1295;51.130;6.732;2022-11-18T07:21:54;10.90;99.90
2571;DHT22;1295;51.130;6.732;2022-11-18T07:24:19;10.90;99.90
2571;DHT22;1295;51.130;6.732;2022-11-18T07:26:45;10.90;99.90
2571;DHT22;1295;51.130;6.732;2022-11-18T07:29:11;10.90;99.90
2571;DHT22;1295;51.130;6.732;2022-11-18T07:31:37;10.90;99.90
2571;DHT22;1295;51.130;6.732;2022-11-18T07:34:02;10.90;99.90
2571;DHT22;1295;51.130;6.732;2022-11-18T07:36:28;10.90;99.90
2571;DHT22;1295;51.130;6.732;2022-11-18T07:38:54;10.90;99.90
2571;DHT22;1295;51.130;6.732;2022-11-18T07:41:21;10.90;99.90
2571;DHT22;1295;51.130;6.732;2022-11-18T07:43:46;10.90;99.90
2571;DHT22;1295;51.130;6.732;2022-11-18T07:46:15;10.80;99.90
2571;DHT22;1295;51.130;6.732;2022-11-18T07:48:40;10.80;99.90
2571;DHT22;1295;51.130;6.732;2022-11-18T07:51:06;10.80;99.90
2571;DHT22;1295;51.130;6.732;2022-11-18T07:53:32;10.80;99.90
2571;DHT22;1295;51.130;6.732;2022-11-18T07:55:57;10.90;99.90
2571;DHT22;1295;51.130;6.732;2022-11-18T07:58:22;10.90;99.90
2571;DHT22;1295;51.130;6.732;2022-11-18T08:00:48;10.80;99.90
2571;DHT22;1295;51.130;6.732;2022-11-18T08:03:14;10.90;99.90
2571;DHT22;1295;51.130;6.732;2022-11-18T08:05:40;10.90;99.90
2571;DHT22;1295;51.130;6.732;2022-11-18T08:08:06;10.80;99.90
2571;DHT22;1295;51.130;6.732;2022-11-18T08:10:31;10.80;99.90
2571;DHT22;1295;51.130;6.732;2022-11-18T08:12:57;10.80;99.90
2571;DHT22;1295;51.130;6.732;2022-11-18T08:15:23;10.80;99.90
2571;DHT22;1295;51.130;6.732;2022-11-18T08:17:48;10.80;99.90
2571;DHT22;1295;51.130;6.732;2022-11-18T08:20:14;10.80;99.90
2571;DHT22;1295;51.130;6.732;2022-11-18T08:22:40;10.90;99.90
2571;DHT22;1295;51.130;6.732;2022-11-18T08:25:07;10.80;99.90
2571;DHT22;1295;51.130;6.732;2022-11-18T08:27:32;10.80;99.90
2571;DHT22;1295;51.130;6.732;2022-11-18T08:29:58;10.80;99.90
2571;DHT22;1295;51.130;6.732;2022-11-18T08:32:23;10.80;99.90
2571;DHT22;1295;51.130;6.732;2022-11-18T08:34:49;10.90;99.90
2571;DHT22;1295;51.130;6.732;2022-11-18T08:37:15;10.80;99.90
2571;DHT22;1295;51.130;6.732;2022-11-18T08:39:40;10.80;99.90
2571;DHT22;1295;51.130;6.732;2022-11-18T08:42:06;10.80;99.90
2571;DHT22;1295;51.130;6.732;2022-11-18T08:44:32;10.90;99.90
2571;DHT22;1295;51.130;6.732;2022-11-18T08:46:58;10.90;99.90
2571;DHT22;1295;51.130;6.732;2022-11-18T08:49:23;10.80;99.90
2571;DHT22;1295;51.130;6.732;2022-11-18T08:51:50;10.90;99.90
2571;DHT22;1295;51.130;6.732;2022-11-18T08:54:16;10.80;99.90
2571;DHT22;1295;51.130;6.732;2022-11-18T08:56:41;10.90;99.90
2571;DHT22;1295;51.130;6.732;2022-11-18T08:59:07;10.60;99.90
2571;DHT22;1295;51.130;6.732;2022-11-18T09:01:34;10.60;99.90
2571;DHT22;1295;51.130;6.732;2022-11-18T09:03:58;10.60;99.90
2571;DHT22;1295;51.130;6.732;2022-11-18T09:06:24;10.70;99.90
2571;DHT22;1295;51.130;6.732;2022-11-18T09:08:49;11.00;99.90
2571;DHT22;1295;51.130;6.732;2022-11-18T09:11:17;11.60;99.90
2571;DHT22;1295;51.130;6.732;2022-11-18T09:13:41;11.60;99.90
2571;DHT22;1295;51.130;6.732;2022-11-18T09:16:07;11.70;99.90
2571;DHT22;1295;51.130;6.732;2022-11-18T09:18:33;11.90;99.90
2571;DHT22;1295;51.130;6.732;2022-11-18T09:20:59;11.90;99.90
2571;DHT22;1295;51.130;6.732;2022-11-18T09:23:25;12.40;99.90
2571;DHT22;1295;51.130;6.732;2022-11-18T09:25:58;12.40;99.90
2571;DHT22;1295;51.130;6.732;2022-11-18T09:28:23;12.10;99.90
2571;DHT22;1295;51.130;6.732;2022-11-18T09:30:49;12.10;99.90
2571;DHT22;1295;51.130;6.732;2022-11-18T09:33:14;12.10;99.90
2571;DHT22;1295;51.130;6.732;2022-11-18T09:35:41;12.10;99.90
2571;DHT22;1295;51.130;6.732;2022-11-18T09:38:06;12.00;99.90
2571;DHT22;1295;51.130;6.732;2022-11-18T09:40:33;12.50;99.90
2571;DHT22;1295;51.130;6.732;2022-11-18T09:43:05;13.00;99.90
2571;DHT22;1295;51.130;6.732;2022-11-18T09:45:32;12.70;99.90
2571;DHT22;1295;51.130;6.732;2022-11-18T09:47:57;12.30;99.90
2571;DHT22;1295;51.130;6.732;2022-11-18T09:50:21;12.40;99.90
2571;DHT22;1295;51.130;6.732;2022-11-18T09:52:52;12.90;99.90
2571;DHT22;1295;51.130;6.732;2022-11-18T09:55:14;12.50;99.90
2571;DHT22;1295;51.130;6.732;2022-11-18T09:57:47;12.60;99.90
2571;DHT22;1295;51.130;6.732;2022-11-18T10:00:16;13.80;99.90
2571;DHT22;1295;51.130;6.732;2022-11-18T10:03:04;14.10;99.90
2571;DHT22;1295;51.130;6.732;2022-11-18T10:08:23;14.40;99.90
2571;DHT22;1295;51.130;6.732;2022-11-18T10:11:05;14.10;99.90
2571;DHT22;1295;51.130;6.732;2022-11-18T10:14:16;14.00;99.90
2571;DHT22;1295;51.130;6.732;2022-11-18T10:21:49;14.20;99.90
2571;DHT22;1295;51.130;6.732;2022-11-18T10:24:14;14.20;99.90
2571;DHT22;1295;51.130;6.732;2022-11-18T10:26:38;14.40;99.90
2571;DHT22;1295;51.130;6.732;2022-11-18T10:29:03;14.40;99.90
2571;DHT22;1295;51.130;6.732;2022-11-18T10:31:29;13.60;99.90
2571;DHT22;1295;51.130;6.732;2022-11-18T10:33:58;14.30;99.90
2571;DHT22;1295;51.130;6.732;2022-11-18T10:36:27;14.20;99.90
2571;DHT22;1295;51.130;6.732;2022-11-18T10:39:12;13.80;99.90
2571;DHT22;1295;51.130;6.732;2022-11-18T10:41:40;14.20;99.90
2571;DHT22;1295;51.130;6.732;2022-11-18T10:44:04;13.70;99.90
2571;DHT22;1295;51.130;6.732;2022-11-18T10:46:31;13.70;99.90
2571;DHT22;1295;51.130;6.732;2022-11-18T10:49:13;14.50;99.90
2571;DHT22;1295;51.130;6.732;2022-11-18T10:51:41;14.80;99.90
2571;DHT22;1295;51.130;6.732;2022-11-18T10:56:56;14.20;99.90
2571;DHT22;1295;51.130;6.732;2022-11-18T10:59:33;14.60;99.90
2571;DHT22;1295;51.130;6.732;2022-11-18T11:02:02;14.50;99.90
2571;DHT22;1295;51.130;6.732;2022-11-18T11:04:25;14.40;99.90
2571;DHT22;1295;51.130;6.732;2022-11-18T11:06:52;14.90;99.90
2571;DHT22;1295;51.130;6.732;2022-11-18T11:09:25;15.30;99.90
2571;DHT22;1295;51.130;6.732;2022-11-18T11:12:01;15.00;99.90
2571;DHT22;1295;51.130;6.732;2022-11-18T11:17:29;14.70;99.90
2571;DHT22;1295;51.130;6.732;2022-11-18T11:20:17;14.70;99.90
2571;DHT22;1295;51.130;6.732;2022-11-18T11:22:39;15.50;99.90
2571;DHT22;1295;51.130;6.732;2022-11-18T11:25:13;14.90;99.90
2571;DHT22;1295;51.130;6.732;2022-11-18T11:27:48;14.70;99.90
2571;DHT22;1295;51.130;6.732;2022-11-18T11:30:16;15.10;99.90
2571;DHT22;1295;51.130;6.732;2022-11-18T11:35:21;15.70;99.90
2571;DHT22;1295;51.130;6.732;2022-11-18T11:37:54;15.50;99.90
2571;DHT22;1295;51.130;6.732;2022-11-18T11:40:40;16.10;99.90
2571;DHT22;1295;51.130;6.732;2022-11-18T11:43:17;15.50;99.90
2571;DHT22;1295;51.130;6.732;2022-11-18T11:48:22;14.90;99.90
2571;DHT22;1295;51.130;6.732;2022-11-18T11:50:51;15.20;99.90
2571;DHT22;1295;51.130;6.732;2022-11-18T11:53:23;14.90;99.90
2571;DHT22;1295;51.130;6.732;2022-11-18T11:55:51;14.80;99.90
2571;DHT22;1295;51.130;6.732;2022-11-18T11:58:17;14.10;99.90
2571;DHT22;1295;51.130;6.732;2022-11-18T12:00:40;13.70;99.90
2571;DHT22;1295;51.130;6.732;2022-11-18T12:03:14;13.60;99.90
2571;DHT22;1295;51.130;6.732;2022-11-18T12:05:38;13.20;99.90
2571;DHT22;1295;51.130;6.732;2022-11-18T12:08:08;13.50;99.90
2571;DHT22;1295;51.130;6.732;2022-11-18T12:10:48;13.50;99.90
2571;DHT22;1295;51.130;6.732;2022-11-18T12:15:58;13.00;99.90
2571;DHT22;1295;51.130;6.732;2022-11-18T12:18:41;12.90;99.90
2571;DHT22;1295;51.130;6.732;2022-11-18T12:21:06;13.00;99.90
2571;DHT22;1295;51.130;6.732;2022-11-18T12:23:32;12.90;99.90
2571;DHT22;1295;51.130;6.732;2022-11-18T12:26:00;12.90;99.90
2571;DHT22;1295;51.130;6.732;2022-11-18T12:28:30;12.80;99.90
2571;DHT22;1295;51.130;6.732;2022-11-18T12:33:33;12.50;99.90
2571;DHT22;1295;51.130;6.732;2022-11-18T12:35:58;12.50;99.90
2571;DHT22;1295;51.130;6.732;2022-11-18T12:38:27;12.40;99.90
2571;DHT22;1295;51.130;6.732;2022-11-18T12:40:51;12.40;99.90
2571;DHT22;1295;51.130;6.732;2022-11-18T12:44:04;12.40;99.90
2571;DHT22;1295;51.130;6.732;2022-11-18T12:46:46;12.40;99.90
2571;DHT22;1295;51.130;6.732;2022-11-18T12:51:44;12.40;99.90
2571;DHT22;1295;51.130;6.732;2022-11-18T12:54:23;12.40;99.90
2571;DHT22;1295;51.130;6.732;2022-11-18T12:56:47;12.40;99.90
2571;DHT22;1295;51.130;6.732;2022-11-18T12:59:12;12.40;99.90
2571;DHT22;1295;51.130;6.732;2022-11-18T13:01:38;12.40;99.90
2571;DHT22;1295;51.130;6.732;2022-11-18T13:04:13;12.40;99.90
2571;DHT22;1295;51.130;6.732;2022-11-18T13:06:36;12.40;99.90
2571;DHT22;1295;51.130;6.732;2022-11-18T13:09:03;12.40;99.90
2571;DHT22;1295;51.130;6.732;2022-11-18T13:11:29;12.40;99.90
2571;DHT22;1295;51.130;6.732;2022-11-18T13:14:02;12.40;99.90
2571;DHT22;1295;51.130;6.732;2022-11-18T13:16:32;12.40;99.90
2571;DHT22;1295;51.130;6.732;2022-11-18T13:19:05;12.40;99.90
2571;DHT22;1295;51.130;6.732;2022-11-18T13:21:31;12.40;99.90
2571;DHT22;1295;51.130;6.732;2022-11-18T13:24:03;12.40;99.90
2571;DHT22;1295;51.130;6.732;2022-11-18T13:26:30;12.30;99.90
2571;DHT22;1295;51.130;6.732;2022-11-18T13:29:13;12.30;99.90
2571;DHT22;1295;51.130;6.732;2022-11-18T13:31:48;12.30;99.90
2571;DHT22;1295;51.130;6.732;2022-11-18T13:34:22;12.30;99.90
2571;DHT22;1295;51.130;6.732;2022-11-18T13:36:47;12.30;99.90
2571;DHT22;1295;51.130;6.732;2022-11-18T13:39:19;12.30;99.90
2571;DHT22;1295;51.130;6.732;2022-11-18T13:41:42;12.30;99.90
2571;DHT22;1295;51.130;6.732;2022-11-18T13:44:21;12.30;99.90
2571;DHT22;1295;51.130;6.732;2022-11-18T13:46:47;12.30;99.90
2571;DHT22;1295;51.130;6.732;2022-11-18T13:49:13;12.30;99.90
2571;DHT22;1295;51.130;6.732;2022-11-18T13:51:38;12.30;99.90
2571;DHT22;1295;51.130;6.732;2022-11-18T13:54:03;12.30;99.90
2571;DHT22;1295;51.130;6.732;2022-11-18T13:56:29;12.30;99.90
2571;DHT22;1295;51.130;6.732;2022-11-18T13:58:56;12.30;99.90
2571;DHT22;1295;51.130;6.732;2022-11-18T14:01:27;12.20;99.90
2571;DHT22;1295;51.130;6.732;2022-11-18T14:03:54;12.20;99.90
2571;DHT22;1295;51.130;6.732;2022-11-18T14:06:25;12.20;99.90
2571;DHT22;1295;51.130;6.732;2022-11-18T14:08:50;12.20;99.90
2571;DHT22;1295;51.130;6.732;2022-11-18T14:11:32;12.20;99.90
2571;DHT22;1295;51.130;6.732;2022-11-18T14:13:47;12.20;99.90
2571;DHT22;1295;51.130;6.732;2022-11-18T14:16:33;12.20;99.90
2571;DHT22;1295;51.130;6.732;2022-11-18T14:18:58;12.20;99.90
2571;DHT22;1295;51.130;6.732;2022-11-18T14:21:26;12.20;99.90
2571;DHT22;1295;51.130;6.732;2022-11-18T14:23:51;12.20;99.90
2571;DHT22;1295;51.130;6.732;2022-11-18T14:26:25;12.20;99.90
2571;DHT22;1295;51.130;6.732;2022-11-18T14:28:47;12.20;99.90
2571;DHT22;1295;51.130;6.732;2022-11-18T14:31:27;12.20;99.90
2571;DHT22;1295;51.130;6.732;2022-11-18T14:34:03;12.20;99.90
2571;DHT22;1295;51.130;6.732;2022-11-18T14:36:27;12.20;99.90
2571;DHT22;1295;51.130;6.732;2022-11-18T14:38:53;12.20;99.90
2571;DHT22;1295;51.130;6.732;2022-11-18T14:41:19;12.20;99.90
2571;DHT22;1295;51.130;6.732;2022-11-18T14:43:45;12.20;99.90
2571;DHT22;1295;51.130;6.732;2022-11-18T14:46:15;12.20;99.90
2571;DHT22;1295;51.130;6.732;2022-11-18T14:48:40;12.20;99.90
2571;DHT22;1295;51.130;6.732;2022-11-18T14:51:10;12.20;99.90
2571;DHT22;1295;51.130;6.732;2022-11-18T14:53:32;12.20;99.90
2571;DHT22;1295;51.130;6.732;2022-11-18T14:55:58;12.20;99.90
2571;DHT22;1295;51.130;6.732;2022-11-18T14:58:24;12.10;99.90
2571;DHT22;1295;51.130;6.732;2022-11-18T15:00:49;12.20;99.90
2571;DHT22;1295;51.130;6.732;2022-11-18T15:03:15;12.20;99.90
2571;DHT22;1295;51.130;6.732;2022-11-18T15:05:40;12.20;99.90
2571;DHT22;1295;51.130;6.732;2022-11-18T15:08:06;12.10;99.90
2571;DHT22;1295;51.130;6.732;2022-11-18T15:10:33;12.20;99.90
2571;DHT22;1295;51.130;6.732;2022-11-18T15:12:58;12.20;99.90
2571;DHT22;1295;51.130;6.732;2022-11-18T15:15:24;12.10;99.90
2571;DHT22;1295;51.130;6.732;2022-11-18T15:17:50;12.10;99.90
2571;DHT22;1295;51.130;6.732;2022-11-18T15:20:16;12.10;99.90
2571;DHT22;1295;51.130;6.732;2022-11-18T15:22:41;12.10;99.90
2571;DHT22;1295;51.130;6.732;2022-11-18T15:25:07;12.10;99.90
2571;DHT22;1295;51.130;6.732;2022-11-18T15:27:33;12.10;99.90
2571;DHT22;1295;51.130;6.732;2022-11-18T15:29:59;12.10;99.90
2571;DHT22;1295;51.130;6.732;2022-11-18T15:32:25;12.00;99.90
2571;DHT22;1295;51.130;6.732;2022-11-18T15:34:51;12.00;99.90
2571;DHT22;1295;51.130;6.732;2022-11-18T15:37:16;12.00;99.90
2571;DHT22;1295;51.130;6.732;2022-11-18T15:39:42;12.00;99.90
2571;DHT22;1295;51.130;6.732;2022-11-18T15:42:08;12.00;99.90
2571;DHT22;1295;51.130;6.732;2022-11-18T15:44:34;12.00;99.90
2571;DHT22;1295;51.130;6.732;2022-11-18T15:46:59;12.00;99.90
2571;DHT22;1295;51.130;6.732;2022-11-18T15:49:25;12.00;99.90
2571;DHT22;1295;51.130;6.732;2022-11-18T15:51:50;12.00;99.90
2571;DHT22;1295;51.130;6.732;2022-11-18T15:54:16;11.90;99.90
2571;DHT22;1295;51.130;6.732;2022-11-18T15:56:42;11.90;99.90
2571;DHT22;1295;51.130;6.732;2022-11-18T15:59:09;11.90;99.90
2571;DHT22;1295;51.130;6.732;2022-11-18T16:01:35;11.90;99.90
2571;DHT22;1295;51.130;6.732;2022-11-18T16:03:59;11.90;99.90
2571;DHT22;1295;51.130;6.732;2022-11-18T16:06:25;11.90;99.90
2571;DHT22;1295;51.130;6.732;2022-11-18T16:08:51;11.90;99.90
2571;DHT22;1295;51.130;6.732;2022-11-18T16:11:17;11.90;99.90
2571;DHT22;1295;51.130;6.732;2022-11-18T16:13:48;11.90;99.90
2571;DHT22;1295;51.130;6.732;2022-11-18T16:16:17;11.90;99.90
2571;DHT22;1295;51.130;6.732;2022-11-18T16:18:42;11.90;99.90
2571;DHT22;1295;51.130;6.732;2022-11-18T16:21:08;11.90;99.90
2571;DHT22;1295;51.130;6.732;2022-11-18T16:23:34;11.90;99.90
2571;DHT22;1295;51.130;6.732;2022-11-18T16:26:00;11.90;99.90
2571;DHT22;1295;51.130;6.732;2022-11-18T16:28:26;11.90;99.90
2571;DHT22;1295;51.130;6.732;2022-11-18T16:30:52;11.90;99.90
2571;DHT22;1295;51.130;6.732;2022-11-18T16:33:23;11.80;99.90
2571;DHT22;1295;51.130;6.732;2022-11-18T16:35:54;11.90;99.90
2571;DHT22;1295;51.130;6.732;2022-11-18T16:38:30;11.90;99.90